WEATHER DATA

TODAY
Time Temp. Dewp. Hum. Wind dir Wind speed Wind gust Bar. 1h Prec. 24h Prec.
00:08 14.4 9 70 0 0 1021.4 0.0000 0.0000
00:19 14.2 8.8 70 0 0 1021.6 0.0000 0.0000
00:28 13.9 8.7 71 0 0 1021.6 0.0000 0.0000
00:38 13.6 8.7 72 0 0 1021.7 0.0000 0.0000
00:48 13.3 8.4 72 0 0 1021.6 0.0000 0.0000
00:59 12.9 8.2 73 0 0 1021.7 0.0000 0.0000
01:09 12.5 8.2 75 0 0 1021.7 0.0000 0.0000
01:18 12.2 8.1 76 0 0 1021.6 0.0000 0.0000
01:29 11.9 8 77 0 0 1021.6 0.0000 0.0000
01:39 11.7 8 78 0 0 1021.7 0.0000 0.0000
01:49 11.5 7.8 78 0 0 1021.7 0.0000 0.0000
01:59 11.1 7.6 79 0 0 1021.7 0.0000 0.0000
02:09 10.8 7.5 80 0 0 1021.7 0.0000 0.0000
02:19 10.5 7.4 81 0 0 1021.7 0.0000 0.0000
02:29 10.3 7.4 82 0 0 1021.8 0.0000 0.0000
02:40 10 7.2 83 0 0 1021.8 0.0000 0.0000
02:50 9.7 7 83 0 0 1021.9 0.0000 0.0000
02:59 9.6 7 84 0 0 1021.9 0.0000 0.0000
03:09 9.4 7 85 0 0 1021.9 0.0000 0.0000
03:20 9.3 7.1 86 0 0 1021.8 0.0000 0.0000
03:30 9.3 7.3 87 0 0 1021.8 0.0000 0.0000
03:40 9.3 7.3 87 0 0 1021.7 0.0000 0.0000
03:50 9.3 7.4 88 0 0 1021.8 0.0000 0.0000
04:00 9.4 7.5 88 0 0 1021.7 0.0000 0.0000
04:10 9.5 7.6 88 0 0 1021.7 0.0000 0.0000
04:20 9.4 7.3 87 0 0 1021.8 0.0000 0.0000
04:31 9.5 7.6 88 0 0 1021.7 0.0000 0.0000
04:40 9.4 7.3 87 0 0 1021.7 0.0000 0.0000
04:50 9.3 7.4 88 0 0 1021.8 0.0000 0.0000
05:01 9.3 7.4 88 0 0 1021.8 0.0000 0.0000
05:11 9.3 7.4 88 0 0 1021.8 0.0000 0.0000
05:20 9.4 7.7 89 0 0 1021.8 0.0000 0.0000
05:30 9.5 7.8 89 0 0 1021.9 0.0000 0.0000
05:41 9.7 8 89 0 0 1021.9 0.0000 0.0000
05:51 9.9 8.2 89 0 0 1021.8 0.0000 0.0000
06:01 10 8.1 88 0 0 1021.9 0.0000 0.0000
06:11 10.2 8.3 88 0 0 1022 0.0000 0.0000
06:21 10.4 8.5 88 0 0 1022.1 0.0000 0.0000
06:31 10.7 8.8 88 0 0 1022.1 0.0000 0.0000
06:41 11.1 8.8 86 0 0 1022.1 0.0000 0.0000
06:52 11.4 9 85 0 0 1022 0.0000 0.0000
07:01 11.9 9.5 85 0 0 1022.1 0.0000 0.0000
07:11 13.1 9.9 81 0 0 1022 0.0000 0.0000
07:22 13.5 9.7 78 0 0 1022.1 0.0000 0.0000
07:32 13.5 9.4 76 0 0 1022.2 0.0000 0.0000
07:42 13.6 9.3 75 0 0 1022.2 0.0000 0.0000
07:51 14 9.6 75 0 0 1022.2 0.0000 0.0000
08:02 14.9 9.3 69 0 0 1022.1 0.0000 0.0000
08:12 15.5 9 65 0 0 1022.1 0.0000 0.0000
08:22 16.2 9.6 65 0 0 1022.2 0.0000 0.0000
08:32 18 9.4 57 0 0 1022.2 0.0000 0.0000
08:42 17.3 8.7 57 0 0 1022.3 0.0000 0.0000
08:52 16.7 8.1 57 0 0 1022.4 0.0000 0.0000
09:02 16 8 59 0 0 1022.4 0.0000 0.0000
09:13 15.7 7.7 59 0 0 1022.7 0.0000 0.0000
09:23 15.8 7.8 59 0 0 1022.7 0.0000 0.0000
09:32 15.8 7.1 56 0 0 1022.6 0.0000 0.0000
09:43 15.9 7.1 56 0 0 1022.7 0.0000 0.0000
09:53 15.7 7 56 0 0 1022.8 0.0000 0.0000
10:03 15.8 7.6 58 0 0 1022.7 0.0000 0.0000
10:13 16.3 7.5 56 0 0 1022.7 0.0000 0.0000
10:23 18.1 8.4 53 0 0 1022.7 0.0000 0.0000
10:33 18.2 8.2 52 0 0 1022.8 0.0000 0.0000
10:43 18.1 8.1 52 0 0 1022.8 0.0000 0.0000
10:53 18.1 8.1 52 0 0 1022.7 0.0000 0.0000
11:04 17.5 7.8 53 0 0 1022.7 0.0000 0.0000
11:13 18.4 8.4 52 0 0 1022.7 0.0000 0.0000
11:23 18.4 8.1 51 0 0 1022.6 0.0000 0.0000
11:34 17.8 7.2 50 0 0 1022.8 0.0000 0.0000
11:44 18 8 52 0 0 1022.9 0.0000 0.0000
11:54 18.5 8.5 52 0 0 1022.9 0.0000 0.0000
12:04 19 8.4 50 0 0 1022.9 0.0000 0.0000
12:14 19.3 8.3 49 0 0 1022.8 0.0000 0.0000
12:24 19.4 8.7 50 0 0 1022.7 0.0000 0.0000
12:34 19.5 8.2 48 0 0 1022.7 0.0000 0.0000
12:45 18.9 8 49 0 0 1022.7 0.0000 0.0000
12:54 19.4 9 51 0 0 1022.6 0.0000 0.0000
13:04 19.9 8.6 48 0 0 1022.6 0.0000 0.0000
13:14 19.3 8 48 0 0 1022.7 0.0000 0.0000
13:25 19.1 7.8 48 0 0 1022.8 0.0000 0.0000
13:35 18.9 8.3 50 0 0 1022.8 0.0000 0.0000
13:44 19.7 8.7 49 0 0 1022.7 0.0000 0.0000
13:55 19.7 8.1 47 0 0 1022.8 0.0000 0.0000
14:05 19.5 8.5 49 0 0 1022.8 0.0000 0.0000
14:15 19.7 8.1 47 0 0 1022.7 0.0000 0.0000
14:25 20.3 8.6 47 0 0 1022.7 0.0000 0.0000
14:35 19.8 7.9 46 0 0 1022.7 0.0000 0.0000
14:45 19.1 7.8 48 0 0 1022.7 0.0000 0.0000
14:55 19.2 7.9 48 0 0 1022.6 0.0000 0.0000
15:06 19.1 8.4 50 0 0 1022.6 0.0000 0.0000
15:16 19.1 8.4 50 0 0 1022.6 0.0000 0.0000

DAY STATISTIC

2022-07-06
TEMPERATURE
AVERAGE
14.4
HIGH
20.3
14:25
LOW
9.3
03:20
PRESSURE
AVERAGE
1022.2
HIGH
1022.9
11:44
LOW
1021.4
00:08
DEWPOINT
AVERAGE
8.1
HIGH
9.9
07:11
LOW
7.0
02:50
HUMIDITY
AVERAGE
68
HIGH
89
05:20
LOW
46
14:35
WIND SPEED
AVERAGE
0.0
HIGH
0.0
13:26
WIND GUST
AVERAGE
0.0
HIGH
0.0
13:26
WIND DIRECTION
PREVAILING
%
PRECIPITATION
RAIN HOUR
0.0
RAIN DAY
0.0
TEMPERATURE (°C)
LOW
9.3
HIGH
20.3
AVERAGE
14.4
PRESSURE (hpa)
LOW
1021.4
HIGH
1022.9
AVERAGE
1022.2
DEVICE